createdAt,value
2022-11-29T00:01:42.188Z,93.50
2022-11-29T00:04:10.796Z,93.28
2022-11-29T00:06:39.492Z,93.00
2022-11-29T00:09:12.708Z,93.24
2022-11-29T00:11:59.853Z,93.03
2022-11-29T00:14:29.120Z,92.94
2022-11-29T00:17:02.372Z,93.12
2022-11-29T00:19:31.640Z,93.10
2022-11-29T00:22:00.099Z,93.52
2022-11-29T00:24:31.690Z,92.98
2022-11-29T00:27:00.381Z,92.92
2022-11-29T00:29:29.255Z,92.98
2022-11-29T00:31:57.289Z,93.47
2022-11-29T00:34:25.608Z,93.14
2022-11-29T00:36:53.762Z,93.37
2022-11-29T00:39:21.972Z,92.48
2022-11-29T00:41:51.578Z,92.14
2022-11-29T00:44:20.746Z,92.21
2022-11-29T00:46:49.861Z,92.92
2022-11-29T00:49:18.397Z,92.47
2022-11-29T00:51:46.621Z,92.42
2022-11-29T00:54:14.740Z,92.31
2022-11-29T00:56:43.091Z,92.60
2022-11-29T00:59:12.598Z,92.66
2022-11-29T01:01:40.746Z,92.22
2022-11-29T01:04:08.947Z,91.93
2022-11-29T01:06:37.073Z,92.41
2022-11-29T01:09:05.532Z,91.64
2022-11-29T01:11:33.954Z,91.68
2022-11-29T01:14:04.483Z,92.20
2022-11-29T01:16:34.225Z,91.18
2022-11-29T01:19:02.696Z,91.31
2022-11-29T01:21:31.346Z,91.85
2022-11-29T01:24:00.811Z,91.97
2022-11-29T01:26:30.965Z,90.44
2022-11-29T01:28:59.907Z,91.78
2022-11-29T01:31:30.619Z,91.59
2022-11-29T01:34:02.177Z,91.36
2022-11-29T01:36:30.564Z,91.69
2022-11-29T01:39:00.708Z,91.87
2022-11-29T01:41:32.042Z,91.96
2022-11-29T01:44:04.007Z,91.38
2022-11-29T01:46:34.813Z,92.29
2022-11-29T01:49:09.583Z,92.80
2022-11-29T01:51:40.598Z,92.82
2022-11-29T01:54:11.270Z,92.41
2022-11-29T01:56:40.123Z,92.40
2022-11-29T01:59:12.502Z,92.61
2022-11-29T02:01:40.715Z,92.08
2022-11-29T02:04:10.524Z,92.79
2022-11-29T02:06:40.374Z,91.90
2022-11-29T02:09:19.014Z,91.70
2022-11-29T02:12:07.267Z,91.21
2022-11-29T02:14:48.528Z,90.30
2022-11-29T02:17:25.928Z,89.04
2022-11-29T02:20:21.234Z,89.78
2022-11-29T02:22:57.628Z,89.99
2022-11-29T02:25:40.340Z,90.31
2022-11-29T02:28:56.428Z,89.83
2022-11-29T02:31:52.053Z,90.01
2022-11-29T02:34:39.250Z,89.83
2022-11-29T02:37:29.854Z,90.51
2022-11-29T02:40:27.025Z,90.45
2022-11-29T02:43:18.175Z,90.17
2022-11-29T02:45:54.892Z,91.06
2022-11-29T02:48:42.729Z,91.20
2022-11-29T02:51:19.233Z,91.01
2022-11-29T02:53:56.999Z,90.56
2022-11-29T02:56:30.686Z,91.12
2022-11-29T02:59:04.741Z,90.71
2022-11-29T03:01:41.272Z,91.85
2022-11-29T03:04:19.729Z,91.96
2022-11-29T03:06:58.719Z,91.39
2022-11-29T03:09:37.966Z,91.35
2022-11-29T03:12:18.857Z,91.21
2022-11-29T03:14:58.180Z,91.85
2022-11-29T03:17:38.565Z,92.09
2022-11-29T03:20:23.852Z,91.32
2022-11-29T03:23:11.695Z,90.98
2022-11-29T03:25:45.567Z,91.24
2022-11-29T03:28:19.984Z,92.03
2022-11-29T03:30:54.479Z,90.71
2022-11-29T03:33:29.880Z,91.51
2022-11-29T03:36:06.422Z,90.96
2022-11-29T03:38:41.979Z,91.33
2022-11-29T03:41:22.029Z,90.92
2022-11-29T03:43:58.717Z,91.59
2022-11-29T03:46:33.978Z,92.19
2022-11-29T03:49:05.657Z,91.80
2022-11-29T03:51:48.295Z,91.42
2022-11-29T03:54:24.081Z,91.35
2022-11-29T03:56:52.970Z,91.74
2022-11-29T03:59:36.685Z,92.15
2022-11-29T04:02:31.384Z,92.32
2022-11-29T04:05:30.205Z,91.63
2022-11-29T04:08:23.163Z,91.86
2022-11-29T04:11:20.524Z,91.50
2022-11-29T04:14:14.385Z,91.78
2022-11-29T04:17:08.573Z,92.13
2022-11-29T04:20:13.102Z,91.34
2022-11-29T04:23:03.384Z,92.28
2022-11-29T04:26:02.884Z,92.50
2022-11-29T04:29:04.850Z,92.99
2022-11-29T04:31:42.343Z,93.32
2022-11-29T04:34:29.473Z,92.99
2022-11-29T04:37:20.102Z,93.00
2022-11-29T04:40:25.841Z,92.92
2022-11-29T04:43:18.994Z,93.36
2022-11-29T04:46:27.945Z,93.27
2022-11-29T04:49:20.783Z,93.47
2022-11-29T04:52:20.495Z,93.23
2022-11-29T04:54:56.021Z,93.22
2022-11-29T04:57:32.011Z,93.50
2022-11-29T05:00:08.348Z,93.31
2022-11-29T05:02:42.570Z,93.65
2022-11-29T05:05:25.288Z,93.10
2022-11-29T05:08:10.255Z,93.42
2022-11-29T05:10:46.435Z,92.87
2022-11-29T05:13:21.028Z,92.94
2022-11-29T05:16:08.673Z,93.43
2022-11-29T05:18:58.898Z,93.34
2022-11-29T05:21:39.371Z,93.46
2022-11-29T05:24:20.909Z,92.91
2022-11-29T05:26:56.656Z,93.09
2022-11-29T05:29:34.696Z,92.42
2022-11-29T05:32:23.308Z,92.38
2022-11-29T05:35:08.634Z,92.44
2022-11-29T05:37:47.050Z,93.61
2022-11-29T05:40:41.077Z,92.59
2022-11-29T05:43:21.974Z,93.15
2022-11-29T05:45:57.019Z,92.65
2022-11-29T05:48:31.230Z,92.86
2022-11-29T05:51:11.560Z,91.67
2022-11-29T05:53:51.535Z,92.60
2022-11-29T05:56:27.696Z,91.31
2022-11-29T05:59:00.561Z,92.34
2022-11-29T06:01:33.126Z,91.69
2022-11-29T06:04:11.784Z,91.10
2022-11-29T06:06:49.593Z,90.98
2022-11-29T06:09:27.683Z,92.21
2022-11-29T06:12:02.611Z,91.57
2022-11-29T06:14:53.313Z,92.05
2022-11-29T06:17:48.944Z,92.01
2022-11-29T06:20:50.316Z,91.00
2022-11-29T06:23:48.855Z,90.49
2022-11-29T06:26:36.313Z,91.26
2022-11-29T06:29:25.458Z,90.87
2022-11-29T06:32:02.636Z,90.40
2022-11-29T06:34:45.794Z,90.91
2022-11-29T06:37:18.903Z,91.08
2022-11-29T06:39:47.485Z,90.77
2022-11-29T06:42:17.658Z,90.79
2022-11-29T06:44:46.833Z,91.25
2022-11-29T06:47:24.875Z,91.64
2022-11-29T06:49:59.773Z,91.75
2022-11-29T06:52:41.304Z,91.72
2022-11-29T06:55:18.548Z,90.61
2022-11-29T06:58:05.053Z,90.78
2022-11-29T07:00:44.026Z,91.10
2022-11-29T07:03:38.904Z,91.42
2022-11-29T07:06:16.118Z,91.05
2022-11-29T07:08:45.424Z,91.09
2022-11-29T07:11:16.242Z,90.89
2022-11-29T07:13:47.174Z,90.43
2022-11-29T07:16:27.067Z,91.28
2022-11-29T07:19:12.023Z,90.70
2022-11-29T07:21:50.518Z,91.54
2022-11-29T07:24:42.504Z,91.03
2022-11-29T07:27:36.243Z,91.40
2022-11-29T07:30:15.590Z,91.77
2022-11-29T07:33:00.464Z,90.82
2022-11-29T07:35:40.276Z,91.77
2022-11-29T07:38:20.618Z,92.00
2022-11-29T07:40:57.209Z,91.67
2022-11-29T07:43:42.644Z,91.23
2022-11-29T07:46:12.527Z,90.86
2022-11-29T07:48:43.737Z,91.00
2022-11-29T07:51:12.639Z,90.61
2022-11-29T07:53:44.147Z,92.00
2022-11-29T07:56:12.890Z,90.54
2022-11-29T07:58:42.175Z,90.19
2022-11-29T08:01:12.113Z,90.90
2022-11-29T08:03:42.528Z,90.37
2022-11-29T08:06:10.922Z,91.74
2022-11-29T08:08:43.700Z,91.35
2022-11-29T08:11:29.625Z,90.05
2022-11-29T08:14:02.345Z,89.56
2022-11-29T08:16:54.745Z,89.55
2022-11-29T08:19:46.123Z,88.62
2022-11-29T08:25:26.300Z,88.99
2022-11-29T08:28:11.210Z,89.31
2022-11-29T08:30:47.286Z,89.40
2022-11-29T08:33:17.749Z,89.54
2022-11-29T08:35:46.704Z,89.23
2022-11-29T08:38:18.103Z,88.48
2022-11-29T08:40:47.776Z,89.01
2022-11-29T08:43:18.839Z,88.73
2022-11-29T08:45:47.760Z,88.75
2022-11-29T08:48:20.613Z,87.97
2022-11-29T08:50:52.050Z,87.74
2022-11-29T08:53:39.566Z,88.28
2022-11-29T08:56:41.631Z,89.16
2022-11-29T08:58:57.868Z,88.40
2022-11-29T09:01:27.309Z,88.49
2022-11-29T09:04:03.603Z,88.21
2022-11-29T09:06:33.922Z,88.32
2022-11-29T09:09:03.741Z,88.08
2022-11-29T09:11:35.086Z,87.38
2022-11-29T09:14:06.026Z,85.69
2022-11-29T09:16:37.621Z,86.94
2022-11-29T09:19:09.369Z,87.90
2022-11-29T09:21:38.056Z,88.13
2022-11-29T09:24:08.638Z,86.39
2022-11-29T09:26:38.448Z,87.86
2022-11-29T09:29:10.828Z,88.31
2022-11-29T09:31:39.649Z,89.06
2022-11-29T09:34:09.671Z,88.09
2022-11-29T09:36:40.874Z,88.60
2022-11-29T09:39:10.073Z,88.74
2022-11-29T09:42:03.217Z,88.78
2022-11-29T09:44:41.886Z,89.81
2022-11-29T09:47:29.718Z,90.05
2022-11-29T09:50:14.783Z,90.72
2022-11-29T09:53:06.067Z,90.65
2022-11-29T09:55:58.419Z,90.33
2022-11-29T09:58:41.627Z,90.08
2022-11-29T10:01:22.006Z,90.29
2022-11-29T10:06:42.129Z,90.37
2022-11-29T10:09:23.869Z,89.40
2022-11-29T10:12:03.042Z,90.53
2022-11-29T10:14:37.667Z,90.28
2022-11-29T10:20:52.155Z,89.97
2022-11-29T10:23:30.922Z,90.73
2022-11-29T10:26:03.424Z,89.60
2022-11-29T10:28:35.197Z,89.07
2022-11-29T10:31:31.462Z,89.28
2022-11-29T10:34:02.442Z,89.45
2022-11-29T10:36:36.572Z,90.94
2022-11-29T10:39:15.274Z,90.41
2022-11-29T11:12:24.740Z,88.73
2022-11-29T11:14:53.623Z,89.90
2022-11-29T11:17:26.495Z,89.20
2022-11-29T11:20:01.043Z,90.42
2022-11-29T11:22:31.391Z,89.26
2022-11-29T11:25:03.921Z,90.57
2022-11-29T11:27:39.840Z,91.18
2022-11-29T11:30:25.291Z,89.58
2022-11-29T11:33:09.007Z,89.65
2022-11-29T11:35:39.259Z,89.30
2022-11-29T11:38:16.254Z,89.12
2022-11-29T11:40:44.972Z,90.18
2022-11-29T11:43:22.049Z,90.57
2022-11-29T11:45:54.972Z,90.02
2022-11-29T11:48:24.182Z,89.60
2022-11-29T11:50:56.588Z,89.73
2022-11-29T11:53:30.007Z,90.05
2022-11-29T11:56:02.041Z,90.08
2022-11-29T11:58:36.749Z,89.33
2022-11-29T12:01:16.788Z,89.34
2022-11-29T12:03:56.329Z,90.24
2022-11-29T12:06:33.604Z,89.59
2022-11-29T12:09:08.786Z,89.85
2022-11-29T12:11:44.784Z,89.17
2022-11-29T12:14:25.327Z,88.97
2022-11-29T12:17:03.441Z,89.64
2022-11-29T12:19:41.064Z,89.83
2022-11-29T12:22:16.223Z,89.75
2022-11-29T12:24:57.273Z,89.74
2022-11-29T12:27:28.757Z,89.49
2022-11-29T12:29:58.912Z,89.82
2022-11-29T12:32:50.971Z,89.51
2022-11-29T12:35:40.955Z,88.65
2022-11-29T12:38:23.471Z,88.73
2022-11-29T12:41:04.389Z,89.49
2022-11-29T12:43:48.994Z,88.99
2022-11-29T12:46:26.119Z,87.86
2022-11-29T12:49:01.905Z,88.62
2022-11-29T12:51:40.014Z,88.73
2022-11-29T12:54:21.640Z,89.10
2022-11-29T12:56:57.810Z,88.80
2022-11-29T12:59:38.131Z,88.95
2022-11-29T13:02:23.995Z,88.90
2022-11-29T13:05:08.335Z,88.66
2022-11-29T13:07:45.165Z,89.52
2022-11-29T13:10:35.873Z,89.71
2022-11-29T13:13:18.013Z,88.77
2022-11-29T13:15:51.943Z,89.23
2022-11-29T13:18:27.426Z,88.40
2022-11-29T13:21:02.751Z,88.68
2022-11-29T13:24:07.189Z,88.63
2022-11-29T13:26:27.450Z,88.98
2022-11-29T13:28:56.472Z,89.55
2022-11-29T13:31:26.337Z,89.45
2022-11-29T13:34:06.027Z,88.78
2022-11-29T13:36:49.150Z,88.24
2022-11-29T13:39:31.049Z,90.10
2022-11-29T13:42:07.749Z,88.67
2022-11-29T13:44:43.142Z,90.25
2022-11-29T13:47:14.020Z,89.52
2022-11-29T13:49:55.212Z,89.71
2022-11-29T13:52:44.170Z,89.93
2022-11-29T13:55:34.192Z,89.38
2022-11-29T13:58:16.829Z,88.08
2022-11-29T14:00:51.774Z,89.33
2022-11-29T14:03:36.232Z,88.95
2022-11-29T14:06:21.245Z,89.39
2022-11-29T14:09:32.138Z,88.72
2022-11-29T14:12:05.781Z,89.02
2022-11-29T14:14:41.133Z,90.04
2022-11-29T14:17:35.219Z,88.89
2022-11-29T14:20:52.209Z,90.17
2022-11-29T14:23:43.502Z,89.45
2022-11-29T14:26:31.181Z,89.08
2022-11-29T14:29:00.669Z,89.43
2022-11-29T14:31:48.445Z,89.29
2022-11-29T14:34:28.058Z,88.45
2022-11-29T14:37:04.815Z,89.45
2022-11-29T14:39:43.647Z,88.95
2022-11-29T14:42:17.141Z,89.79
2022-11-29T14:44:49.016Z,88.98
2022-11-29T14:47:24.761Z,89.99
2022-11-29T14:49:55.270Z,89.35
2022-11-29T15:31:50.659Z,90.46
2022-11-29T15:34:31.065Z,90.28
2022-11-29T15:36:59.809Z,90.75
2022-11-29T15:39:31.468Z,90.44
2022-11-29T15:42:04.630Z,91.17
2022-11-29T15:44:35.278Z,90.43
2022-11-29T15:47:16.851Z,90.88
2022-11-29T15:49:46.270Z,91.97
2022-11-29T15:52:30.939Z,91.42
2022-11-29T15:55:02.299Z,92.12
2022-11-29T15:57:36.115Z,91.81
2022-11-29T16:00:09.128Z,92.24
2022-11-29T16:02:41.048Z,91.44
2022-11-29T16:05:17.422Z,91.46
2022-11-29T16:07:47.303Z,91.08
2022-11-29T16:10:19.660Z,91.65
2022-11-29T16:12:56.064Z,90.83
2022-11-29T16:15:30.214Z,90.80
2022-11-29T16:18:04.803Z,90.97
2022-11-29T16:20:34.592Z,90.99
2022-11-29T16:23:12.433Z,91.80
2022-11-29T16:26:00.205Z,92.24
2022-11-29T16:28:34.026Z,91.22
2022-11-29T16:31:02.221Z,92.06
2022-11-29T16:33:30.400Z,90.96
2022-11-29T16:36:08.052Z,91.24
2022-11-29T16:38:36.061Z,91.15
2022-11-29T16:41:07.324Z,90.98
2022-11-29T16:43:53.954Z,91.58
2022-11-29T16:46:33.738Z,92.27
2022-11-29T16:49:04.644Z,91.28
2022-11-29T16:51:43.878Z,91.97
2022-11-29T16:54:24.402Z,92.26
2022-11-29T16:56:54.167Z,92.25
2022-11-29T16:59:27.892Z,92.09
2022-11-29T17:01:56.789Z,90.54
2022-11-29T17:04:25.712Z,90.17
2022-11-29T17:06:55.985Z,90.94
2022-11-29T17:09:26.270Z,90.88
2022-11-29T17:11:55.076Z,91.54
2022-11-29T17:14:23.262Z,91.82
2022-11-29T17:16:52.145Z,91.39
2022-11-29T17:19:25.584Z,90.92
2022-11-29T17:21:55.281Z,90.88
2022-11-29T17:24:24.617Z,91.65
2022-11-29T17:26:52.971Z,91.68
2022-11-29T17:29:21.185Z,90.84
2022-11-29T17:31:50.701Z,91.64
2022-11-29T17:34:19.198Z,91.02
2022-11-29T17:36:47.657Z,91.00
2022-11-29T17:39:20.225Z,91.26
2022-11-29T17:41:48.613Z,91.01
2022-11-29T17:44:16.891Z,90.51
2022-11-29T17:46:45.060Z,90.36
2022-11-29T17:49:13.342Z,90.79
2022-11-29T17:51:57.199Z,89.94
2022-11-29T17:54:27.058Z,89.91
2022-11-29T17:56:55.173Z,90.17
2022-11-29T17:59:23.387Z,90.26
2022-11-29T18:01:51.687Z,90.25
2022-11-29T18:04:19.844Z,89.55
2022-11-29T18:06:50.476Z,89.31
2022-11-29T18:09:20.029Z,89.12
2022-11-29T18:11:50.913Z,90.17
2022-11-29T18:14:21.309Z,89.24
2022-11-29T18:16:50.109Z,88.91
2022-11-29T18:19:20.830Z,90.25
2022-11-29T18:21:50.713Z,89.71
2022-11-29T18:24:19.150Z,89.84
2022-11-29T18:26:47.838Z,90.31
2022-11-29T18:29:17.527Z,90.46
2022-11-29T18:31:46.893Z,90.75
2022-11-29T18:34:16.239Z,89.33
2022-11-29T18:36:46.085Z,88.63
2022-11-29T18:39:16.540Z,89.81
2022-11-29T18:41:46.905Z,90.28
2022-11-29T18:44:18.201Z,89.39
2022-11-29T18:46:46.767Z,89.00
2022-11-29T18:49:16.706Z,89.54
2022-11-29T18:51:46.329Z,88.71
2022-11-29T18:54:15.375Z,89.05
2022-11-29T18:56:44.220Z,88.90
2022-11-29T18:59:14.861Z,88.96
2022-11-29T19:01:45.671Z,89.82
2022-11-29T19:04:15.484Z,89.56
2022-11-29T19:06:44.359Z,89.52
2022-11-29T19:09:15.078Z,89.64
2022-11-29T19:11:43.383Z,89.54
2022-11-29T19:14:13.600Z,89.43
2022-11-29T19:16:43.346Z,90.47
2022-11-29T19:19:13.546Z,90.66
2022-11-29T19:21:42.413Z,89.72
2022-11-29T19:24:17.908Z,90.50
2022-11-29T19:26:48.007Z,89.37
2022-11-29T19:29:17.576Z,90.18
2022-11-29T19:31:45.872Z,90.63
2022-11-29T19:34:15.714Z,90.20
2022-11-29T19:36:44.986Z,89.95
2022-11-29T19:39:15.902Z,90.56
2022-11-29T19:41:45.551Z,89.51
2022-11-29T19:44:14.340Z,89.77
2022-11-29T19:46:44.489Z,89.67
2022-11-29T19:49:13.299Z,89.30
2022-11-29T19:51:42.912Z,89.28
2022-11-29T19:54:12.094Z,88.94
2022-11-29T19:56:40.998Z,89.07
2022-11-29T19:59:09.882Z,88.72
2022-11-29T20:01:41.392Z,89.17
2022-11-29T20:04:11.880Z,89.26
2022-11-29T20:06:43.328Z,88.33
2022-11-29T20:09:11.997Z,88.81
2022-11-29T20:11:40.273Z,88.52
2022-11-29T20:14:09.354Z,88.43
2022-11-29T20:16:39.297Z,88.25
2022-11-29T20:19:11.031Z,88.45
2022-11-29T20:21:44.839Z,88.38
2022-11-29T20:24:14.503Z,88.94
2022-11-29T20:26:44.539Z,88.63
2022-11-29T20:29:13.183Z,88.31
2022-11-29T20:31:49.087Z,88.31
2022-11-29T20:34:19.592Z,88.06
2022-11-29T20:37:09.475Z,87.87
2022-11-29T20:39:47.267Z,87.46
2022-11-29T20:42:41.533Z,88.21
2022-11-29T20:45:11.425Z,87.90
2022-11-29T20:47:46.552Z,88.25
2022-11-29T20:50:21.798Z,87.66
2022-11-29T20:53:04.707Z,87.96
2022-11-29T20:55:32.788Z,88.11
2022-11-29T20:58:00.908Z,88.30
2022-11-29T21:00:29.017Z,87.84
2022-11-29T21:02:57.052Z,87.52
2022-11-29T21:05:25.371Z,87.06
2022-11-29T21:07:55.835Z,86.70
2022-11-29T21:10:24.189Z,86.74
2022-11-29T21:12:53.296Z,86.33
2022-11-29T21:15:22.461Z,87.04
2022-11-29T21:17:51.109Z,85.99
2022-11-29T21:20:22.096Z,86.57
2022-11-29T21:22:59.897Z,85.91
2022-11-29T21:25:39.149Z,86.21
2022-11-29T21:28:12.421Z,86.80
2022-11-29T21:30:41.373Z,87.31
2022-11-29T21:33:10.721Z,87.17
2022-11-29T21:35:40.633Z,87.16
2022-11-29T21:38:14.660Z,87.62
2022-11-29T21:40:42.912Z,87.19
2022-11-29T21:43:10.967Z,87.55
2022-11-29T21:45:40.396Z,87.60
2022-11-29T21:48:28.850Z,86.86
2022-11-29T21:50:59.681Z,88.34
2022-11-29T21:53:29.428Z,88.03
2022-11-29T21:55:58.474Z,88.46
2022-11-29T21:58:27.168Z,88.30
2022-11-29T22:00:55.400Z,88.13
2022-11-29T22:03:23.972Z,87.85
2022-11-29T22:05:52.232Z,87.29
2022-11-29T22:08:20.466Z,88.00
2022-11-29T22:10:50.147Z,87.50
2022-11-29T22:13:18.178Z,88.13
2022-11-29T22:15:46.606Z,87.10
2022-11-29T22:18:14.823Z,87.80
2022-11-29T22:20:47.391Z,87.67
2022-11-29T22:23:15.566Z,88.34
2022-11-29T22:25:44.155Z,87.98
2022-11-29T22:28:14.683Z,87.90
2022-11-29T22:30:43.144Z,88.31
2022-11-29T22:33:13.412Z,88.53
2022-11-29T22:35:44.523Z,87.91
2022-11-29T22:38:13.218Z,88.77
2022-11-29T22:40:41.791Z,88.99
2022-11-29T22:43:10.127Z,88.63
2022-11-29T22:45:40.077Z,88.58
2022-11-29T22:48:08.843Z,87.62
2022-11-29T22:50:37.167Z,87.25
2022-11-29T22:53:05.669Z,87.56
2022-11-29T22:55:33.914Z,87.57
2022-11-29T22:58:02.232Z,88.85
2022-11-29T23:00:31.215Z,88.53
2022-11-29T23:03:00.919Z,86.99
2022-11-29T23:05:32.455Z,87.16
2022-11-29T23:08:01.317Z,86.85
2022-11-29T23:10:29.778Z,87.26
2022-11-29T23:12:58.492Z,87.15
2022-11-29T23:15:26.743Z,86.45
2022-11-29T23:17:55.198Z,87.21
2022-11-29T23:20:24.815Z,87.65
2022-11-29T23:22:53.037Z,88.11
2022-11-29T23:25:23.946Z,87.51
2022-11-29T23:27:54.137Z,87.39
2022-11-29T23:30:22.961Z,87.14
2022-11-29T23:32:51.498Z,86.56
2022-11-29T23:35:20.031Z,85.98
2022-11-29T23:37:49.822Z,87.07
2022-11-29T23:40:18.806Z,86.87
2022-11-29T23:42:52.325Z,86.19
2022-11-29T23:45:20.768Z,86.90
2022-11-29T23:47:49.029Z,86.65
2022-11-29T23:50:17.452Z,87.38
2022-11-29T23:52:45.663Z,87.19
2022-11-29T23:55:16.717Z,86.91
2022-11-29T23:57:44.813Z,86.92
